sensor_id;sensor_type;location;lat;lon;timestamp;pressure;altitude;pressure_sealevel;temperature;humidity
11888;BME280;6003;42.756;23.130;2023-05-23T00:01:04;155180.28;;;10.75;100.00
11888;BME280;6003;42.756;23.130;2023-05-23T00:03:32;155171.06;;;10.72;100.00
11888;BME280;6003;42.756;23.130;2023-05-23T00:06:00;155159.13;;;10.67;100.00
11888;BME280;6003;42.756;23.130;2023-05-23T00:08:30;155153.88;;;10.65;100.00
11888;BME280;6003;42.756;23.130;2023-05-23T00:10:57;155140.66;;;10.60;100.00
11888;BME280;6003;42.756;23.130;2023-05-23T00:13:23;155123.47;;;10.53;100.00
11888;BME280;6003;42.756;23.130;2023-05-23T00:15:51;155111.56;;;10.49;100.00
11888;BME280;6003;42.756;23.130;2023-05-23T00:18:17;155111.56;;;10.49;100.00
11888;BME280;6003;42.756;23.130;2023-05-23T00:20:44;155110.25;;;10.48;100.00
11888;BME280;6003;42.756;23.130;2023-05-23T00:23:11;155102.31;;;10.45;100.00
11888;BME280;6003;42.756;23.130;2023-05-23T00:25:44;155107.63;;;10.47;100.00
11888;BME280;6003;42.756;23.130;2023-05-23T00:28:17;155114.19;;;10.50;100.00
11888;BME280;6003;42.756;23.130;2023-05-23T00:30:45;155103.66;;;10.46;100.00
11888;BME280;6003;42.756;23.130;2023-05-23T00:33:13;155099.66;;;10.44;100.00
11888;BME280;6003;42.756;23.130;2023-05-23T00:35:40;155098.34;;;10.44;100.00
11888;BME280;6003;42.756;23.130;2023-05-23T00:38:07;155090.41;;;10.41;100.00
11888;BME280;6003;42.756;23.130;2023-05-23T00:40:36;155090.41;;;10.41;100.00
11888;BME280;6003;42.756;23.130;2023-05-23T00:43:04;155085.13;;;10.38;100.00
11888;BME280;6003;42.756;23.130;2023-05-23T00:45:32;155086.47;;;10.39;100.00
11888;BME280;6003;42.756;23.130;2023-05-23T00:48:00;155074.56;;;10.34;100.00
11888;BME280;6003;42.756;23.130;2023-05-23T00:50:28;155069.25;;;10.32;100.00
11888;BME280;6003;42.756;23.130;2023-05-23T00:52:56;155064.00;;;10.30;100.00
11888;BME280;6003;42.756;23.130;2023-05-23T00:55:24;155065.31;;;10.31;100.00
11888;BME280;6003;42.756;23.130;2023-05-23T00:57:52;155074.56;;;10.34;100.00
11888;BME280;6003;42.756;23.130;2023-05-23T01:00:23;155078.56;;;10.36;100.00
11888;BME280;6003;42.756;23.130;2023-05-23T01:02:51;155074.56;;;10.34;100.00
11888;BME280;6003;42.756;23.130;2023-05-23T01:05:18;155058.72;;;10.28;100.00
11888;BME280;6003;42.756;23.130;2023-05-23T01:07:47;155058.72;;;10.28;100.00
11888;BME280;6003;42.756;23.130;2023-05-23T01:10:15;155058.72;;;10.28;100.00
11888;BME280;6003;42.756;23.130;2023-05-23T01:12:53;155053.34;;;10.26;100.00
11888;BME280;6003;42.756;23.130;2023-05-23T01:15:28;155053.34;;;10.26;100.00
11888;BME280;6003;42.756;23.130;2023-05-23T01:18:00;155053.34;;;10.26;100.00
11888;BME280;6003;42.756;23.130;2023-05-23T01:20:32;155050.72;;;10.25;100.00
11888;BME280;6003;42.756;23.130;2023-05-23T01:23:28;155029.59;;;10.17;100.00
11888;BME280;6003;42.756;23.130;2023-05-23T01:26:12;155021.66;;;10.14;100.00
11888;BME280;6003;42.756;23.130;2023-05-23T01:28:47;155008.44;;;10.09;100.00
11888;BME280;6003;42.756;23.130;2023-05-23T01:31:16;154987.28;;;10.01;100.00
11888;BME280;6003;42.756;23.130;2023-05-23T01:33:45;154995.22;;;10.04;100.00
11888;BME280;6003;42.756;23.130;2023-05-23T01:36:14;154992.59;;;10.03;100.00
11888;BME280;6003;42.756;23.130;2023-05-23T01:38:41;154997.88;;;10.05;100.00
11888;BME280;6003;42.756;23.130;2023-05-23T01:41:08;154987.28;;;10.01;100.00
11888;BME280;6003;42.756;23.130;2023-05-23T01:43:35;154984.66;;;10.00;100.00
11888;BME280;6003;42.756;23.130;2023-05-23T01:46:04;154982.03;;;9.99;100.00
11888;BME280;6003;42.756;23.130;2023-05-23T01:48:33;154976.72;;;9.97;100.00
11888;BME280;6003;42.756;23.130;2023-05-23T01:51:01;154982.03;;;9.99;100.00
11888;BME280;6003;42.756;23.130;2023-05-23T01:53:28;154992.59;;;10.03;100.00
11888;BME280;6003;42.756;23.130;2023-05-23T01:55:56;154997.88;;;10.05;100.00
11888;BME280;6003;42.756;23.130;2023-05-23T01:58:23;154997.88;;;10.05;100.00
11888;BME280;6003;42.756;23.130;2023-05-23T02:00:50;154985.97;;;10.00;100.00
11888;BME280;6003;42.756;23.130;2023-05-23T02:03:18;154979.38;;;9.98;100.00
11888;BME280;6003;42.756;23.130;2023-05-23T02:05:45;154979.38;;;9.98;100.00
11888;BME280;6003;42.756;23.130;2023-05-23T02:08:12;154982.03;;;9.99;100.00
11888;BME280;6003;42.756;23.130;2023-05-23T02:10:38;154979.38;;;9.98;100.00
11888;BME280;6003;42.756;23.130;2023-05-23T02:13:05;154976.72;;;9.97;100.00
11888;BME280;6003;42.756;23.130;2023-05-23T02:15:32;154979.38;;;9.98;100.00
11888;BME280;6003;42.756;23.130;2023-05-23T02:17:59;154982.03;;;9.99;100.00
11888;BME280;6003;42.756;23.130;2023-05-23T02:20:28;154971.44;;;9.94;100.00
11888;BME280;6003;42.756;23.130;2023-05-23T02:22:55;154945.03;;;9.84;100.00
11888;BME280;6003;42.756;23.130;2023-05-23T02:25:22;154923.91;;;9.76;100.00
11888;BME280;6003;42.756;23.130;2023-05-23T02:27:49;154918.59;;;9.74;100.00
11888;BME280;6003;42.756;23.130;2023-05-23T02:30:16;154923.91;;;9.76;100.00
11888;BME280;6003;42.756;23.130;2023-05-23T02:32:42;154931.81;;;9.79;100.00
11888;BME280;6003;42.756;23.130;2023-05-23T02:35:09;154913.31;;;9.72;100.00
11888;BME280;6003;42.756;23.130;2023-05-23T03:00:01;154962.19;;;9.91;100.00
11888;BME280;6003;42.756;23.130;2023-05-23T03:02:29;154955.59;;;9.88;100.00
11888;BME280;6003;42.756;23.130;2023-05-23T03:04:56;154942.38;;;9.83;100.00
11888;BME280;6003;42.756;23.130;2023-05-23T03:07:23;154941.06;;;9.83;100.00
11888;BME280;6003;42.756;23.130;2023-05-23T03:09:50;154919.91;;;9.75;100.00
11888;BME280;6003;42.756;23.130;2023-05-23T03:12:17;154921.22;;;9.75;100.00
11888;BME280;6003;42.756;23.130;2023-05-23T03:14:44;154934.44;;;9.80;100.00
11888;BME280;6003;42.756;23.130;2023-05-23T03:17:12;154958.22;;;9.89;100.00
11888;BME280;6003;42.756;23.130;2023-05-23T03:19:39;154989.97;;;10.02;100.00
11888;BME280;6003;42.756;23.130;2023-05-23T03:22:06;155048.09;;;10.24;100.00
11888;BME280;6003;42.756;23.130;2023-05-23T03:24:33;155126.09;;;10.54;100.00
11888;BME280;6003;42.756;23.130;2023-05-23T03:27:00;155190.91;;;10.79;100.00
11888;BME280;6003;42.756;23.130;2023-05-23T03:29:27;155259.63;;;11.06;100.00
11888;BME280;6003;42.756;23.130;2023-05-23T03:31:54;155341.63;;;11.38;100.00
11888;BME280;6003;42.756;23.130;2023-05-23T03:34:22;155387.91;;;11.56;100.00
11888;BME280;6003;42.756;23.130;2023-05-23T03:36:50;155430.25;;;11.72;100.00
11888;BME280;6003;42.756;23.130;2023-05-23T03:39:17;155505.72;;;12.01;100.00
11888;BME280;6003;42.756;23.130;2023-05-23T03:41:44;155607.66;;;12.40;100.00
11888;BME280;6003;42.756;23.130;2023-05-23T03:44:11;155693.66;;;12.74;100.00
11888;BME280;6003;42.756;23.130;2023-05-23T03:46:39;155765.19;;;13.01;100.00
11888;BME280;6003;42.756;23.130;2023-05-23T03:49:05;155789.03;;;13.10;100.00
11888;BME280;6003;42.756;23.130;2023-05-23T03:51:34;155795.66;;;13.13;100.00
11888;BME280;6003;42.756;23.130;2023-05-23T03:54:00;155831.47;;;13.27;100.00
11888;BME280;6003;42.756;23.130;2023-05-23T03:56:27;155852.66;;;13.35;100.00
11888;BME280;6003;42.756;23.130;2023-05-23T03:58:54;155865.88;;;13.40;100.00
11888;BME280;6003;42.756;23.130;2023-05-23T04:01:21;155847.38;;;13.33;100.00
11888;BME280;6003;42.756;23.130;2023-05-23T04:03:48;155865.88;;;13.40;100.00
11888;BME280;6003;42.756;23.130;2023-05-23T04:06:15;155909.59;;;13.57;100.00
11888;BME280;6003;42.756;23.130;2023-05-23T04:08:44;155986.50;;;13.87;100.00
11888;BME280;6003;42.756;23.130;2023-05-23T04:11:10;155993.06;;;13.89;100.00
11888;BME280;6003;42.756;23.130;2023-05-23T04:13:37;155906.97;;;13.56;100.00
11888;BME280;6003;42.756;23.130;2023-05-23T04:16:05;155831.47;;;13.27;100.00
11888;BME280;6003;42.756;23.130;2023-05-23T04:18:32;155664.53;;;12.62;100.00
11888;BME280;6003;42.756;23.130;2023-05-23T04:20:59;155540.16;;;12.14;100.00
11888;BME280;6003;42.756;23.130;2023-05-23T04:23:25;155403.78;;;11.62;100.00
11888;BME280;6003;42.756;23.130;2023-05-23T04:56:10;156424.09;;;15.55;100.00
11888;BME280;6003;42.756;23.130;2023-05-23T04:58:38;156675.00;;;16.52;95.92
11888;BME280;6003;42.756;23.130;2023-05-23T05:01:06;156775.97;;;16.91;91.25
11888;BME280;6003;42.756;23.130;2023-05-23T05:03:34;156608.63;;;16.27;90.61
11888;BME280;6003;42.756;23.130;2023-05-23T05:06:01;156490.50;;;15.81;93.15
11888;BME280;6003;42.756;23.130;2023-05-23T05:08:28;156499.75;;;15.85;92.55
11888;BME280;6003;42.756;23.130;2023-05-23T05:10:55;156420.13;;;15.54;95.60
11888;BME280;6003;42.756;23.130;2023-05-23T05:13:23;156327.25;;;15.18;96.29
11888;BME280;6003;42.756;23.130;2023-05-23T05:15:50;156532.97;;;15.97;94.46
11888;BME280;6003;42.756;23.130;2023-05-23T05:18:19;156562.19;;;16.09;93.24
11888;BME280;6003;42.756;23.130;2023-05-23T05:20:46;156245.00;;;14.86;96.57
11888;BME280;6003;42.756;23.130;2023-05-23T05:23:13;156197.28;;;14.68;100.00
11888;BME280;6003;42.756;23.130;2023-05-23T05:25:40;156298.06;;;15.07;100.00
11888;BME280;6003;42.756;23.130;2023-05-23T05:28:07;156184.03;;;14.63;100.00
11888;BME280;6003;42.756;23.130;2023-05-23T05:30:35;156120.31;;;14.38;100.00
11888;BME280;6003;42.756;23.130;2023-05-23T05:33:03;156166.81;;;14.56;100.00
11888;BME280;6003;42.756;23.130;2023-05-23T05:35:32;156295.41;;;15.06;100.00
11888;BME280;6003;42.756;23.130;2023-05-23T05:37:59;156539.63;;;16.00;100.00
11888;BME280;6003;42.756;23.130;2023-05-23T05:40:26;156728.13;;;16.73;97.64
11888;BME280;6003;42.756;23.130;2023-05-23T05:42:54;156967.28;;;17.65;93.13
11888;BME280;6003;42.756;23.130;2023-05-23T05:45:20;157041.75;;;17.93;89.85
11888;BME280;6003;42.756;23.130;2023-05-23T05:47:49;157008.50;;;17.80;89.27
11888;BME280;6003;42.756;23.130;2023-05-23T05:50:16;156999.16;;;17.77;89.25
11888;BME280;6003;42.756;23.130;2023-05-23T05:52:45;156871.63;;;17.28;91.66
11888;BME280;6003;42.756;23.130;2023-05-23T05:55:12;156858.31;;;17.23;91.50
11888;BME280;6003;42.756;23.130;2023-05-23T05:57:40;156744.09;;;16.79;92.22
11888;BME280;6003;42.756;23.130;2023-05-23T06:00:08;156592.72;;;16.20;93.22
11888;BME280;6003;42.756;23.130;2023-05-23T06:02:38;156363.06;;;15.32;96.92
11888;BME280;6003;42.756;23.130;2023-05-23T06:05:07;156319.28;;;15.15;99.99
11888;BME280;6003;42.756;23.130;2023-05-23T06:07:36;156422.78;;;15.55;100.00
11888;BME280;6003;42.756;23.130;2023-05-23T06:10:04;156380.31;;;15.39;99.67
11888;BME280;6003;42.756;23.130;2023-05-23T06:12:31;156531.66;;;15.97;99.65
11888;BME280;6003;42.756;23.130;2023-05-23T06:14:58;156507.72;;;15.88;96.86
11888;BME280;6003;42.756;23.130;2023-05-23T06:17:25;156455.97;;;15.68;98.73
11888;BME280;6003;42.756;23.130;2023-05-23T06:19:51;156437.38;;;15.61;99.34
11888;BME280;6003;42.756;23.130;2023-05-23T06:22:20;156463.97;;;15.71;100.00
11888;BME280;6003;42.756;23.130;2023-05-23T06:24:47;156316.66;;;15.14;99.42
11888;BME280;6003;42.756;23.130;2023-05-23T06:27:13;156199.94;;;14.69;100.00
11888;BME280;6003;42.756;23.130;2023-05-23T06:29:41;156117.66;;;14.37;100.00
11888;BME280;6003;42.756;23.130;2023-05-23T06:32:07;155993.06;;;13.89;100.00
11888;BME280;6003;42.756;23.130;2023-05-23T06:34:34;155982.50;;;13.85;100.00
11888;BME280;6003;42.756;23.130;2023-05-23T06:37:01;155942.75;;;13.70;100.00
11888;BME280;6003;42.756;23.130;2023-05-23T06:39:29;155957.34;;;13.75;100.00
11888;BME280;6003;42.756;23.130;2023-05-23T06:41:56;156028.88;;;14.03;100.00
11888;BME280;6003;42.756;23.130;2023-05-23T06:44:23;156144.22;;;14.48;100.00
11888;BME280;6003;42.756;23.130;2023-05-23T06:46:50;156266.22;;;14.95;100.00
11888;BME280;6003;42.756;23.130;2023-05-23T06:49:21;156347.16;;;15.26;100.00
11888;BME280;6003;42.756;23.130;2023-05-23T06:51:48;156378.97;;;15.38;100.00
11888;BME280;6003;42.756;23.130;2023-05-23T06:54:15;156540.94;;;16.00;100.00
11888;BME280;6003;42.756;23.130;2023-05-23T06:56:44;156608.63;;;16.27;100.00
11888;BME280;6003;42.756;23.130;2023-05-23T06:59:11;156592.72;;;16.20;99.65
11888;BME280;6003;42.756;23.130;2023-05-23T07:01:37;156783.94;;;16.94;100.00
11888;BME280;6003;42.756;23.130;2023-05-23T07:04:05;156890.25;;;17.35;96.77
11888;BME280;6003;42.756;23.130;2023-05-23T07:06:32;156975.25;;;17.68;96.77
11888;BME280;6003;42.756;23.130;2023-05-23T07:09:00;157158.72;;;18.38;97.72
11888;BME280;6003;42.756;23.130;2023-05-23T07:11:28;157194.63;;;18.52;91.23
11888;BME280;6003;42.756;23.130;2023-05-23T07:13:57;157261.16;;;18.78;91.36
11888;BME280;6003;42.756;23.130;2023-05-23T07:16:24;157169.38;;;18.42;91.25
11888;BME280;6003;42.756;23.130;2023-05-23T07:18:51;157177.34;;;18.45;93.79
11888;BME280;6003;42.756;23.130;2023-05-23T07:21:18;157084.31;;;18.10;93.45
11888;BME280;6003;42.756;23.130;2023-05-23T07:23:45;157152.09;;;18.36;92.02
11888;BME280;6003;42.756;23.130;2023-05-23T07:26:12;157164.03;;;18.40;93.19
11888;BME280;6003;42.756;23.130;2023-05-23T07:28:39;157150.75;;;18.35;95.03
11888;BME280;6003;42.756;23.130;2023-05-23T07:31:07;157223.88;;;18.63;93.52
11888;BME280;6003;42.756;23.130;2023-05-23T07:33:34;157203.91;;;18.56;92.80
11888;BME280;6003;42.756;23.130;2023-05-23T07:36:01;157174.72;;;18.44;92.75
11888;BME280;6003;42.756;23.130;2023-05-23T07:38:28;157169.38;;;18.42;89.73
11888;BME280;6003;42.756;23.130;2023-05-23T07:40:55;157242.53;;;18.70;91.81
11888;BME280;6003;42.756;23.130;2023-05-23T07:43:22;157251.88;;;18.74;92.06
11888;BME280;6003;42.756;23.130;2023-05-23T07:45:48;157306.38;;;18.95;93.55
11888;BME280;6003;42.756;23.130;2023-05-23T07:48:17;157356.94;;;19.14;89.27
11888;BME280;6003;42.756;23.130;2023-05-23T07:50:44;157358.25;;;19.15;89.98
11888;BME280;6003;42.756;23.130;2023-05-23T07:53:11;157348.97;;;19.11;90.41
11888;BME280;6003;42.756;23.130;2023-05-23T07:55:37;157360.91;;;19.16;90.96
11888;BME280;6003;42.756;23.130;2023-05-23T07:58:04;157360.91;;;19.16;89.83
11888;BME280;6003;42.756;23.130;2023-05-23T08:00:31;157364.91;;;19.17;88.62
11888;BME280;6003;42.756;23.130;2023-05-23T08:02:58;157440.75;;;19.47;89.28
11888;BME280;6003;42.756;23.130;2023-05-23T08:05:26;157560.56;;;19.93;91.78
11888;BME280;6003;42.756;23.130;2023-05-23T08:07:53;157537.94;;;19.84;85.71
11888;BME280;6003;42.756;23.130;2023-05-23T08:10:20;157565.91;;;19.95;89.50
11888;BME280;6003;42.756;23.130;2023-05-23T08:12:47;157611.16;;;20.12;89.49
11888;BME280;6003;42.756;23.130;2023-05-23T08:15:14;157659.06;;;20.31;85.10
11888;BME280;6003;42.756;23.130;2023-05-23T08:17:41;157704.34;;;20.48;85.53
11888;BME280;6003;42.756;23.130;2023-05-23T08:20:09;157701.69;;;20.47;82.75
11888;BME280;6003;42.756;23.130;2023-05-23T08:22:38;157589.84;;;20.04;83.03
11888;BME280;6003;42.756;23.130;2023-05-23T08:25:05;157688.38;;;20.42;86.73
11888;BME280;6003;42.756;23.130;2023-05-23T08:27:32;157725.69;;;20.56;82.00
11888;BME280;6003;42.756;23.130;2023-05-23T08:30:00;157667.06;;;20.34;85.05
11888;BME280;6003;42.756;23.130;2023-05-23T08:32:28;157603.19;;;20.09;81.54
11888;BME280;6003;42.756;23.130;2023-05-23T08:34:55;157780.28;;;20.77;88.49
11888;BME280;6003;42.756;23.130;2023-05-23T08:37:21;157816.25;;;20.91;85.42
11888;BME280;6003;42.756;23.130;2023-05-23T08:39:49;157894.88;;;21.21;82.77
11888;BME280;6003;42.756;23.130;2023-05-23T08:42:17;157845.56;;;21.02;81.22
11888;BME280;6003;42.756;23.130;2023-05-23T08:44:44;157877.50;;;21.14;86.42
11888;BME280;6003;42.756;23.130;2023-05-23T08:47:13;157613.81;;;20.13;79.33
11888;BME280;6003;42.756;23.130;2023-05-23T08:49:42;157728.41;;;20.57;83.25
11888;BME280;6003;42.756;23.130;2023-05-23T08:52:11;157728.41;;;20.57;81.08
11888;BME280;6003;42.756;23.130;2023-05-23T08:54:41;157748.34;;;20.65;78.61
11888;BME280;6003;42.756;23.130;2023-05-23T08:57:09;157906.81;;;21.26;80.00
11888;BME280;6003;42.756;23.130;2023-05-23T08:59:37;157848.25;;;21.03;71.17
11888;BME280;6003;42.756;23.130;2023-05-23T09:02:07;157772.28;;;20.74;79.00
11888;BME280;6003;42.756;23.130;2023-05-23T09:04:36;157853.53;;;21.05;78.35
11888;BME280;6003;42.756;23.130;2023-05-23T09:07:03;157981.50;;;21.54;80.39
11888;BME280;6003;42.756;23.130;2023-05-23T09:09:31;157944.19;;;21.40;75.26
11888;BME280;6003;42.756;23.130;2023-05-23T09:11:58;157992.19;;;21.58;73.35
11888;BME280;6003;42.756;23.130;2023-05-23T09:14:26;157992.19;;;21.58;68.01
11888;BME280;6003;42.756;23.130;2023-05-23T09:16:59;158076.13;;;21.91;71.40
11888;BME280;6003;42.756;23.130;2023-05-23T09:19:27;158108.09;;;22.03;70.21
11888;BME280;6003;42.756;23.130;2023-05-23T09:21:55;158058.81;;;21.84;66.66
11888;BME280;6003;42.756;23.130;2023-05-23T09:24:22;158025.47;;;21.71;67.59
11888;BME280;6003;42.756;23.130;2023-05-23T09:26:52;158022.81;;;21.70;66.76
11888;BME280;6003;42.756;23.130;2023-05-23T09:29:22;158050.81;;;21.81;66.85
11888;BME280;6003;42.756;23.130;2023-05-23T09:31:51;158066.81;;;21.87;66.38
11888;BME280;6003;42.756;23.130;2023-05-23T09:34:18;158128.09;;;22.11;68.60
11888;BME280;6003;42.756;23.130;2023-05-23T09:36:45;158184.13;;;22.32;65.17
11888;BME280;6003;42.756;23.130;2023-05-23T09:39:13;158225.47;;;22.48;67.59
11888;BME280;6003;42.756;23.130;2023-05-23T09:41:40;158318.81;;;22.84;69.19
11888;BME280;6003;42.756;23.130;2023-05-23T09:44:08;158248.16;;;22.57;61.40
11888;BME280;6003;42.756;23.130;2023-05-23T09:46:36;158352.22;;;22.96;62.97
11888;BME280;6003;42.756;23.130;2023-05-23T09:49:16;158441.59;;;23.31;60.21
11888;BME280;6003;42.756;23.130;2023-05-23T09:51:59;158470.94;;;23.42;59.73
11888;BME280;6003;42.756;23.130;2023-05-23T09:54:27;158534.97;;;23.67;59.32
11888;BME280;6003;42.756;23.130;2023-05-23T09:56:56;158671.13;;;24.19;57.85
11888;BME280;6003;42.756;23.130;2023-05-23T09:59:52;158608.41;;;23.95;58.90
11888;BME280;6003;42.756;23.130;2023-05-23T10:02:53;158704.53;;;24.31;58.01
11888;BME280;6003;42.756;23.130;2023-05-23T10:05:30;158823.38;;;24.77;57.57
11888;BME280;6003;42.756;23.130;2023-05-23T10:08:00;158709.84;;;24.33;52.87
11888;BME280;6003;42.756;23.130;2023-05-23T10:10:30;158575.03;;;23.82;55.25
11888;BME280;6003;42.756;23.130;2023-05-23T10:13:01;158413.56;;;23.20;56.48
11888;BME280;6003;42.756;23.130;2023-05-23T10:15:34;158310.81;;;22.81;56.34
11888;BME280;6003;42.756;23.130;2023-05-23T10:18:09;158281.47;;;22.69;57.32
11888;BME280;6003;42.756;23.130;2023-05-23T10:20:42;158333.47;;;22.89;57.65
11888;BME280;6003;42.756;23.130;2023-05-23T11:20:33;158057.44;;;21.83;53.13
11888;BME280;6003;42.756;23.130;2023-05-23T11:23:06;158114.78;;;22.05;57.09
11888;BME280;6003;42.756;23.130;2023-05-23T11:25:41;158154.78;;;22.21;52.46
11888;BME280;6003;42.756;23.130;2023-05-23T11:28:08;158184.13;;;22.32;52.59
11888;BME280;6003;42.756;23.130;2023-05-23T11:30:36;158221.47;;;22.46;54.58
11888;BME280;6003;42.756;23.130;2023-05-23T11:33:07;158256.13;;;22.60;54.96
11888;BME280;6003;42.756;23.130;2023-05-23T11:35:39;158258.78;;;22.61;53.11
11888;BME280;6003;42.756;23.130;2023-05-23T11:38:08;158261.50;;;22.62;52.61
11888;BME280;6003;42.756;23.130;2023-05-23T11:40:37;158284.16;;;22.70;54.79
11888;BME280;6003;42.756;23.130;2023-05-23T11:43:05;158292.16;;;22.73;50.16
11888;BME280;6003;42.756;23.130;2023-05-23T11:45:33;158270.81;;;22.65;54.45
11888;BME280;6003;42.756;23.130;2023-05-23T11:48:07;158333.47;;;22.89;59.14
11888;BME280;6003;42.756;23.130;2023-05-23T11:50:44;158322.81;;;22.85;52.65
11888;BME280;6003;42.756;23.130;2023-05-23T11:53:12;158266.78;;;22.64;54.78
11888;BME280;6003;42.756;23.130;2023-05-23T11:55:47;158229.44;;;22.49;52.04
11888;BME280;6003;42.756;23.130;2023-05-23T11:58:14;158245.44;;;22.56;53.80
11888;BME280;6003;42.756;23.130;2023-05-23T12:00:44;158305.44;;;22.79;55.96
11888;BME280;6003;42.756;23.130;2023-05-23T12:03:11;158234.81;;;22.51;53.65
11888;BME280;6003;42.756;23.130;2023-05-23T12:05:38;158172.16;;;22.27;52.67
11888;BME280;6003;42.756;23.130;2023-05-23T12:08:10;158205.47;;;22.40;56.49
11888;BME280;6003;42.756;23.130;2023-05-23T12:10:48;158181.47;;;22.31;51.78
11888;BME280;6003;42.756;23.130;2023-05-23T12:13:14;158238.81;;;22.53;55.78
11888;BME280;6003;42.756;23.130;2023-05-23T12:15:41;158305.44;;;22.79;56.93
11888;BME280;6003;42.756;23.130;2023-05-23T12:18:27;158314.81;;;22.82;54.45
11888;BME280;6003;42.756;23.130;2023-05-23T12:20:54;158240.16;;;22.53;51.71
11888;BME280;6003;42.756;23.130;2023-05-23T12:23:23;158285.47;;;22.71;51.71
11888;BME280;6003;42.756;23.130;2023-05-23T12:25:51;158346.81;;;22.94;53.72
11888;BME280;6003;42.756;23.130;2023-05-23T12:28:18;158388.25;;;23.10;54.73
11888;BME280;6003;42.756;23.130;2023-05-23T12:30:45;158290.81;;;22.73;53.95
11888;BME280;6003;42.756;23.130;2023-05-23T12:33:13;158250.78;;;22.58;52.70
11888;BME280;6003;42.756;23.130;2023-05-23T12:35:42;158226.81;;;22.48;50.75
11888;BME280;6003;42.756;23.130;2023-05-23T12:38:14;158176.13;;;22.29;52.58
11888;BME280;6003;42.756;23.130;2023-05-23T12:40:43;158234.81;;;22.51;55.41
11888;BME280;6003;42.756;23.130;2023-05-23T12:43:09;158232.16;;;22.50;51.06
11888;BME280;6003;42.756;23.130;2023-05-23T12:58:08;158632.44;;;24.04;49.72
11888;BME280;6003;42.756;23.130;2023-05-23T13:00:35;158653.81;;;24.12;48.54
11888;BME280;6003;42.756;23.130;2023-05-23T13:03:02;158648.44;;;24.10;47.96
11888;BME280;6003;42.756;23.130;2023-05-23T13:05:30;158613.78;;;23.97;50.82
11888;BME280;6003;42.756;23.130;2023-05-23T13:07:57;158373.56;;;23.05;54.24
11888;BME280;6003;42.756;23.130;2023-05-23T13:10:24;158145.47;;;22.17;57.71
11888;BME280;6003;42.756;23.130;2023-05-23T13:12:51;158137.44;;;22.14;61.48
11888;BME280;6003;42.756;23.130;2023-05-23T13:15:19;158113.44;;;22.05;60.20
11888;BME280;6003;42.756;23.130;2023-05-23T13:17:46;158033.47;;;21.74;60.47
11888;BME280;6003;42.756;23.130;2023-05-23T13:20:13;157985.50;;;21.56;60.34
11888;BME280;6003;42.756;23.130;2023-05-23T13:22:40;157920.16;;;21.31;63.65
11888;BME280;6003;42.756;23.130;2023-05-23T13:25:07;157909.53;;;21.27;63.52
11888;BME280;6003;42.756;23.130;2023-05-23T13:27:34;157930.84;;;21.35;62.58
11888;BME280;6003;42.756;23.130;2023-05-23T13:30:01;157944.19;;;21.40;62.39
11888;BME280;6003;42.756;23.130;2023-05-23T13:32:30;157938.88;;;21.38;62.96
11888;BME280;6003;42.756;23.130;2023-05-23T13:34:56;157976.19;;;21.52;64.36
11888;BME280;6003;42.756;23.130;2023-05-23T13:37:23;158017.47;;;21.68;65.52
11888;BME280;6003;42.756;23.130;2023-05-23T13:39:50;158066.81;;;21.87;65.36
11888;BME280;6003;42.756;23.130;2023-05-23T13:42:17;158160.13;;;22.23;66.33
11888;BME280;6003;42.756;23.130;2023-05-23T13:44:43;158258.78;;;22.61;66.86
11888;BME280;6003;42.756;23.130;2023-05-23T13:47:12;158360.22;;;23.00;62.24
11888;BME280;6003;42.756;23.130;2023-05-23T13:49:41;158385.53;;;23.09;61.21
11888;BME280;6003;42.756;23.130;2023-05-23T13:52:08;158344.16;;;22.93;59.78
11888;BME280;6003;42.756;23.130;2023-05-23T13:54:35;158288.13;;;22.72;59.52
11888;BME280;6003;42.756;23.130;2023-05-23T13:57:03;158280.13;;;22.69;59.94
11888;BME280;6003;42.756;23.130;2023-05-23T13:59:30;158304.13;;;22.78;61.27
11888;BME280;6003;42.756;23.130;2023-05-23T14:01:56;158252.13;;;22.58;60.06
11888;BME280;6003;42.756;23.130;2023-05-23T14:04:23;158256.13;;;22.60;61.59
11888;BME280;6003;42.756;23.130;2023-05-23T14:06:52;158245.44;;;22.56;58.61
11888;BME280;6003;42.756;23.130;2023-05-23T14:09:19;158246.81;;;22.56;59.27
11888;BME280;6003;42.756;23.130;2023-05-23T14:11:46;158232.16;;;22.50;57.44
11888;BME280;6003;42.756;23.130;2023-05-23T14:14:13;158262.81;;;22.62;58.73
11888;BME280;6003;42.756;23.130;2023-05-23T14:16:39;158272.13;;;22.66;59.66
11888;BME280;6003;42.756;23.130;2023-05-23T14:19:06;158278.81;;;22.68;55.90
11888;BME280;6003;42.756;23.130;2023-05-23T14:21:33;158304.13;;;22.78;59.91
11888;BME280;6003;42.756;23.130;2023-05-23T14:24:02;158322.81;;;22.85;59.48
11888;BME280;6003;42.756;23.130;2023-05-23T14:26:28;158330.81;;;22.88;60.38
11888;BME280;6003;42.756;23.130;2023-05-23T14:28:55;158357.53;;;22.98;58.62
11888;BME280;6003;42.756;23.130;2023-05-23T14:31:23;158354.88;;;22.97;58.28
11888;BME280;6003;42.756;23.130;2023-05-23T14:33:50;158345.50;;;22.94;59.18
11888;BME280;6003;42.756;23.130;2023-05-23T14:36:16;158325.47;;;22.86;56.09
11888;BME280;6003;42.756;23.130;2023-05-23T14:38:43;158284.16;;;22.70;56.32
11888;BME280;6003;42.756;23.130;2023-05-23T14:41:12;158241.47;;;22.54;55.83
11888;BME280;6003;42.756;23.130;2023-05-23T14:43:39;158194.81;;;22.36;55.25
11888;BME280;6003;42.756;23.130;2023-05-23T14:46:06;158170.84;;;22.27;54.60
11888;BME280;6003;42.756;23.130;2023-05-23T14:48:33;158176.13;;;22.29;55.84
11888;BME280;6003;42.756;23.130;2023-05-23T14:51:12;158162.78;;;22.24;53.38
11888;BME280;6003;42.756;23.130;2023-05-23T14:53:39;158141.44;;;22.16;54.10
11888;BME280;6003;42.756;23.130;2023-05-23T14:56:06;158157.50;;;22.22;55.12